LYBE/BEG METAR and TAF weather

Enter ICAO airport designator
Station Type Date Time Source
LYBE METAR 2018/12/15 05:30 UTC NOAA

LYBE 150530Z 17004KT 2500 -SN BKN002 OVC026 M00/M00 Q1017 RESN R12/5/0393 NOSIG


Station Type Date Time Source
LYBE Decoded METAR 2018/12/15 05:30 UTC NOAA

Beograd / Surcin, Serbia and Montenegro (LYBE) 44-49N 020-17E 99M
Dec 15, 2018 - 12:30 AM EST / 2018.12.15 0530 UTC
Wind: from the S (170 degrees) at 5 MPH (4 KT):0
Visibility: 1 mile(s):0
Sky conditions: overcast
Weather: light snow
Temperature: 32 F (0 C)
Windchill: 26 F (-3 C):1
Dew Point: 32 F (0 C)
Relative Humidity: 100%
Pressure (altimeter): 30.03 in. Hg (1017 hPa)
ob: LYBE 150530Z 17004KT 2500 -SN BKN002 OVC026 M00/M00 Q1017 RESN R12/5/0393 NOSIG
cycle: 5

Station Type Date Time Source
LYBE TAF 2018/12/15 06:25 UTC NOAA

TAF LYBE 150500Z 1506/1606 19004KT 2000 SN BKN005 OVC023 TX00/1512Z TNM01/1606Z
TEMPO 1506/1510 0600 +SN BKN003 OVC020
BECMG 1519/1521 27010KT 4000 -SN BKN012 OVC030


Example: see airport list